createdAt,value
2018-07-20T00:00:20.211Z,22.50
2018-07-20T00:02:49.178Z,22.50
2018-07-20T00:05:17.760Z,22.40
2018-07-20T00:07:48.649Z,22.40
2018-07-20T00:10:17.484Z,22.40
2018-07-20T00:12:46.387Z,22.40
2018-07-20T00:15:15.091Z,22.40
2018-07-20T00:17:44.021Z,22.30
2018-07-20T00:20:12.926Z,22.30
2018-07-20T00:22:41.457Z,22.40
2018-07-20T00:25:10.150Z,22.40
2018-07-20T00:30:07.653Z,22.30
2018-07-20T00:32:36.240Z,22.30
2018-07-20T00:35:05.217Z,22.30
2018-07-20T00:37:33.805Z,22.20
2018-07-20T00:40:02.507Z,22.20
2018-07-20T00:42:31.732Z,22.30
2018-07-20T00:45:00.335Z,22.30
2018-07-20T00:47:28.910Z,22.30
2018-07-20T00:49:57.514Z,22.30
2018-07-20T00:52:26.122Z,22.20
2018-07-20T00:54:54.660Z,22.20
2018-07-20T00:57:23.346Z,22.10
2018-07-20T00:59:51.984Z,22.10
2018-07-20T01:02:20.615Z,22.20
2018-07-20T01:04:50.020Z,22.20
2018-07-20T01:07:19.171Z,22.20
2018-07-20T01:09:48.028Z,22.10
2018-07-20T01:12:16.647Z,22.10
2018-07-20T01:14:45.908Z,22.10
2018-07-20T01:17:14.455Z,22.10
2018-07-20T01:19:43.028Z,22.00
2018-07-20T01:22:11.599Z,22.00
2018-07-20T01:24:40.203Z,22.00
2018-07-20T01:27:08.891Z,22.00
2018-07-20T01:29:37.839Z,22.00
2018-07-20T01:32:07.758Z,22.00
2018-07-20T01:34:36.342Z,21.80
2018-07-20T01:37:05.132Z,21.80
2018-07-20T01:39:33.739Z,21.80
2018-07-20T01:42:02.280Z,21.80
2018-07-20T01:44:30.801Z,21.80
2018-07-20T01:46:59.621Z,21.70
2018-07-20T01:49:28.340Z,21.80
2018-07-20T01:51:57.026Z,21.70
2018-07-20T01:54:25.616Z,21.80
2018-07-20T01:56:54.149Z,21.80
2018-07-20T01:59:22.926Z,21.70
2018-07-20T02:01:51.763Z,21.80
2018-07-20T02:04:20.789Z,21.80
2018-07-20T02:06:49.714Z,21.70
2018-07-20T02:09:18.743Z,21.70
2018-07-20T02:11:47.492Z,21.60
2018-07-20T02:14:16.681Z,21.60
2018-07-20T02:16:45.885Z,21.60
2018-07-20T02:19:14.855Z,21.60
2018-07-20T02:21:43.759Z,21.60
2018-07-20T02:24:12.412Z,21.50
2018-07-20T02:26:41.038Z,21.50
2018-07-20T02:29:10.546Z,21.50
2018-07-20T02:31:39.130Z,21.40
2018-07-20T02:34:08.236Z,21.40
2018-07-20T02:36:37.031Z,21.40
2018-07-20T02:39:09.280Z,21.40
2018-07-20T02:41:38.248Z,21.40
2018-07-20T02:44:07.249Z,21.30
2018-07-20T02:46:36.488Z,21.30
2018-07-20T02:49:06.181Z,21.40
2018-07-20T02:51:35.605Z,21.40
2018-07-20T02:54:04.351Z,21.40
2018-07-20T02:56:33.189Z,21.50
2018-07-20T02:59:02.272Z,21.40
2018-07-20T03:01:31.632Z,21.30
2018-07-20T03:04:00.270Z,21.20
2018-07-20T03:06:31.031Z,21.10
2018-07-20T03:11:43.922Z,21.10
2018-07-20T03:14:13.240Z,21.10
2018-07-20T03:16:42.388Z,21.00
2018-07-20T03:19:12.488Z,20.90
2018-07-20T03:21:41.901Z,21.00
2018-07-20T03:26:39.925Z,20.90
2018-07-20T03:29:08.533Z,20.90
2018-07-20T03:31:37.916Z,20.90
2018-07-20T03:34:06.467Z,20.90
2018-07-20T03:36:36.072Z,20.80
2018-07-20T03:39:07.403Z,20.80
2018-07-20T03:41:37.494Z,20.90
2018-07-20T03:44:06.318Z,20.90
2018-07-20T03:46:34.971Z,20.80
2018-07-20T03:49:03.941Z,20.90
2018-07-20T03:51:32.444Z,20.90
2018-07-20T03:54:01.796Z,21.00
2018-07-20T03:56:30.534Z,21.00
2018-07-20T03:58:59.625Z,20.90
2018-07-20T04:01:28.531Z,20.90
2018-07-20T04:03:57.102Z,20.90
2018-07-20T04:06:26.160Z,20.90
2018-07-20T04:08:54.885Z,20.80
2018-07-20T04:11:23.858Z,20.90
2018-07-20T04:13:52.717Z,21.00
2018-07-20T04:16:22.334Z,21.10
2018-07-20T04:18:51.768Z,21.10
2018-07-20T04:21:21.080Z,21.10
2018-07-20T04:23:50.078Z,21.10
2018-07-20T04:26:19.474Z,21.00
2018-07-20T04:28:49.151Z,21.00
2018-07-20T04:31:18.398Z,21.00
2018-07-20T04:33:47.060Z,21.10
2018-07-20T04:36:15.679Z,21.10
2018-07-20T04:38:44.756Z,21.10
2018-07-20T04:41:13.341Z,21.00
2018-07-20T04:43:41.921Z,21.10
2018-07-20T04:46:11.088Z,21.00
2018-07-20T04:48:39.788Z,21.00
2018-07-20T04:51:08.755Z,20.90
2018-07-20T04:53:37.463Z,21.00
2018-07-20T04:56:06.153Z,20.90
2018-07-20T04:58:34.922Z,20.90
2018-07-20T05:01:03.495Z,20.90
2018-07-20T05:03:32.615Z,21.00
2018-07-20T05:06:02.351Z,20.90
2018-07-20T05:08:31.885Z,20.90
2018-07-20T05:11:00.451Z,20.90
2018-07-20T05:13:30.170Z,20.90
2018-07-20T05:15:58.684Z,21.00
2018-07-20T05:20:55.545Z,21.00
2018-07-20T05:23:25.037Z,21.10
2018-07-20T05:25:53.702Z,21.00
2018-07-20T05:28:22.364Z,21.10
2018-07-20T05:30:50.988Z,21.20
2018-07-20T05:33:19.670Z,21.30
2018-07-20T05:35:49.125Z,21.40
2018-07-20T05:38:17.912Z,21.50
2018-07-20T05:40:47.071Z,21.70
2018-07-20T05:45:44.938Z,21.80
2018-07-20T05:48:13.535Z,21.90
2018-07-20T05:50:42.447Z,21.90
2018-07-20T05:53:11.561Z,22.00
2018-07-20T05:55:40.134Z,22.00
2018-07-20T05:58:09.969Z,22.10
2018-07-20T06:00:38.745Z,22.10
2018-07-20T06:03:08.661Z,22.20
2018-07-20T06:05:37.249Z,22.20
2018-07-20T06:08:05.913Z,22.30
2018-07-20T06:10:34.845Z,22.30
2018-07-20T06:13:03.490Z,22.40
2018-07-20T06:15:32.280Z,22.40
2018-07-20T06:18:00.963Z,22.40
2018-07-20T06:20:30.048Z,22.50
2018-07-20T06:25:27.243Z,22.70
2018-07-20T06:27:56.272Z,22.80
2018-07-20T06:30:25.251Z,22.90
2018-07-20T06:32:53.953Z,23.00
2018-07-20T06:35:22.805Z,23.10
2018-07-20T06:37:51.449Z,23.10
2018-07-20T06:40:21.334Z,23.30
2018-07-20T06:42:50.888Z,23.30
2018-07-20T06:45:20.903Z,23.40
2018-07-20T06:47:50.744Z,23.40
2018-07-20T06:50:20.222Z,23.50
2018-07-20T06:52:49.314Z,23.60
2018-07-20T06:55:18.963Z,23.60
2018-07-20T06:57:47.951Z,23.70
2018-07-20T07:00:19.430Z,23.70
2018-07-20T07:02:49.282Z,23.80
2018-07-20T07:05:18.114Z,23.80
2018-07-20T07:07:47.107Z,23.80
2018-07-20T07:10:15.935Z,23.90
2018-07-20T07:12:44.595Z,24.00
2018-07-20T07:15:14.666Z,24.10
2018-07-20T07:17:43.693Z,24.30
2018-07-20T07:20:12.631Z,24.40
2018-07-20T07:22:42.411Z,24.50
2018-07-20T07:25:11.262Z,24.70
2018-07-20T07:27:40.489Z,24.70
2018-07-20T07:30:09.096Z,24.80
2018-07-20T07:32:38.577Z,24.80
2018-07-20T07:35:08.255Z,24.90
2018-07-20T07:37:37.004Z,25.00
2018-07-20T07:40:06.137Z,25.20
2018-07-20T07:42:35.284Z,25.40
2018-07-20T07:45:04.698Z,25.60
2018-07-20T07:47:33.676Z,25.80
2018-07-20T07:50:03.138Z,26.00
2018-07-20T07:52:32.578Z,26.10
2018-07-20T07:55:02.029Z,26.20
2018-07-20T07:57:31.150Z,26.20
2018-07-20T07:59:59.927Z,26.20
2018-07-20T08:02:28.933Z,26.20
2018-07-20T08:04:58.161Z,26.10
2018-07-20T08:07:26.816Z,26.10
2018-07-20T08:09:56.024Z,26.00
2018-07-20T08:12:24.613Z,26.00
2018-07-20T08:14:53.896Z,26.10
2018-07-20T08:17:22.645Z,26.20
2018-07-20T08:19:51.903Z,26.30
2018-07-20T08:22:20.677Z,26.40
2018-07-20T08:24:49.219Z,26.60
2018-07-20T08:27:18.924Z,26.70
2018-07-20T08:29:47.569Z,26.90
2018-07-20T08:32:17.243Z,27.00
2018-07-20T08:34:46.401Z,27.10
2018-07-20T08:37:15.541Z,27.20
2018-07-20T08:39:44.635Z,27.30
2018-07-20T08:42:13.836Z,27.30
2018-07-20T08:44:42.519Z,27.30
2018-07-20T08:47:12.088Z,27.40
2018-07-20T08:49:41.305Z,27.40
2018-07-20T08:52:10.007Z,27.50
2018-07-20T08:57:06.980Z,27.50
2018-07-20T08:59:35.832Z,27.50
2018-07-20T09:02:04.865Z,27.60
2018-07-20T09:04:33.426Z,27.50
2018-07-20T09:09:30.822Z,27.60
2018-07-20T09:14:28.227Z,27.70
2018-07-20T09:16:57.296Z,27.70
2018-07-20T09:19:26.435Z,27.70
2018-07-20T09:21:55.262Z,27.70
2018-07-20T09:24:24.098Z,27.70
2018-07-20T09:26:54.076Z,27.70
2018-07-20T09:29:23.043Z,27.70
2018-07-20T09:31:52.563Z,27.70
2018-07-20T09:34:21.992Z,27.60
2018-07-20T09:36:51.186Z,27.60
2018-07-20T09:39:20.759Z,27.60
2018-07-20T09:41:50.197Z,27.60
2018-07-20T09:46:48.219Z,27.60
2018-07-20T09:49:17.288Z,27.60
2018-07-20T09:51:46.546Z,27.70
2018-07-20T09:54:15.318Z,27.70
2018-07-20T09:56:44.220Z,27.70
2018-07-20T09:59:13.060Z,27.60
2018-07-20T10:01:41.887Z,27.60
2018-07-20T10:04:10.583Z,27.60
2018-07-20T10:06:39.673Z,27.60
2018-07-20T10:09:10.862Z,27.50
2018-07-20T10:11:40.690Z,27.50
2018-07-20T10:14:09.620Z,27.50
2018-07-20T10:16:39.675Z,27.50
2018-07-20T10:19:08.789Z,27.50
2018-07-20T10:21:38.033Z,27.60
2018-07-20T10:24:07.230Z,27.70
2018-07-20T10:26:36.217Z,27.70
2018-07-20T10:29:05.771Z,27.70
2018-07-20T10:31:34.402Z,27.60
2018-07-20T10:34:03.667Z,27.60
2018-07-20T10:36:33.028Z,27.60
2018-07-20T10:39:01.973Z,27.50
2018-07-20T10:41:30.670Z,27.50
2018-07-20T10:43:59.634Z,27.50
2018-07-20T10:46:28.679Z,27.50
2018-07-20T10:48:57.397Z,27.50
2018-07-20T10:51:26.352Z,27.50
2018-07-20T10:53:55.230Z,27.60
2018-07-20T10:56:23.863Z,27.60
2018-07-20T10:58:53.881Z,27.60
2018-07-20T11:01:22.558Z,27.50
2018-07-20T11:03:51.310Z,27.50
2018-07-20T11:06:20.188Z,27.40
2018-07-20T11:08:48.934Z,27.40
2018-07-20T11:11:17.518Z,27.40
2018-07-20T11:13:47.104Z,27.40
2018-07-20T11:16:15.678Z,27.40
2018-07-20T11:18:44.936Z,27.70
2018-07-20T11:21:13.493Z,27.80
2018-07-20T11:23:42.033Z,27.80
2018-07-20T11:26:11.262Z,27.80
2018-07-20T11:31:08.172Z,28.10
2018-07-20T11:33:36.813Z,28.20
2018-07-20T11:36:05.453Z,28.20
2018-07-20T11:38:34.375Z,28.20
2018-07-20T11:41:02.952Z,28.10
2018-07-20T11:43:31.581Z,28.10
2018-07-20T11:46:00.382Z,28.00
2018-07-20T11:48:29.370Z,28.00
2018-07-20T11:50:57.935Z,28.00
2018-07-20T11:53:26.509Z,28.00
2018-07-20T11:58:24.130Z,28.00
2018-07-20T12:00:52.731Z,28.00
2018-07-20T12:03:21.352Z,27.90
2018-07-20T12:05:50.977Z,27.90
2018-07-20T12:08:19.563Z,28.00
2018-07-20T12:10:49.828Z,28.10
2018-07-20T12:13:19.894Z,28.20
2018-07-20T12:15:49.071Z,28.20
2018-07-20T12:19:48.082Z,28.30
2018-07-20T12:22:16.789Z,28.40
2018-07-20T12:24:45.893Z,28.20
2018-07-20T12:27:15.014Z,28.30
2018-07-20T12:29:44.066Z,28.40
2018-07-20T12:32:13.365Z,28.40
2018-07-20T12:34:42.173Z,28.40
2018-07-20T12:37:11.314Z,28.40
2018-07-20T12:39:40.126Z,28.30
2018-07-20T12:42:09.119Z,28.30
2018-07-20T12:44:37.657Z,28.30
2018-07-20T12:47:07.507Z,28.30
2018-07-20T12:49:36.089Z,28.30
2018-07-20T12:52:04.678Z,28.30
2018-07-20T12:54:33.220Z,28.40
2018-07-20T12:57:02.962Z,28.40
2018-07-20T12:59:32.118Z,28.40
2018-07-20T13:02:01.758Z,28.30
2018-07-20T13:04:30.386Z,28.30
2018-07-20T13:06:59.596Z,28.30
2018-07-20T13:09:28.452Z,28.20
2018-07-20T13:11:58.166Z,28.30
2018-07-20T13:14:27.163Z,28.10
2018-07-20T13:16:56.156Z,28.20
2018-07-20T13:19:24.958Z,28.10
2018-07-20T13:21:53.898Z,28.10
2018-07-20T13:24:22.587Z,28.10
2018-07-20T13:26:51.393Z,28.10
2018-07-20T13:29:22.191Z,28.10
2018-07-20T13:31:50.815Z,28.00
2018-07-20T13:34:20.524Z,28.00
2018-07-20T13:36:49.173Z,28.00
2018-07-20T13:39:18.036Z,28.00
2018-07-20T13:41:46.588Z,28.00
2018-07-20T13:44:15.680Z,28.00
2018-07-20T13:46:44.903Z,28.00
2018-07-20T13:49:14.245Z,28.10
2018-07-20T13:54:11.229Z,28.10
2018-07-20T13:56:40.964Z,28.00
2018-07-20T13:59:09.915Z,28.00
2018-07-20T14:01:39.302Z,28.10
2018-07-20T14:04:08.214Z,28.10
2018-07-20T14:06:37.532Z,28.20
2018-07-20T14:09:09.046Z,28.30
2018-07-20T14:11:39.884Z,28.50
2018-07-20T14:14:09.240Z,28.60
2018-07-20T14:16:38.038Z,28.80
2018-07-20T14:19:06.845Z,29.00
2018-07-20T14:21:35.424Z,29.00
2018-07-20T14:24:04.890Z,29.00
2018-07-20T14:26:33.510Z,29.00
2018-07-20T14:29:02.430Z,28.90
2018-07-20T14:34:00.401Z,28.90
2018-07-20T14:36:29.681Z,28.90
2018-07-20T14:38:58.762Z,28.80
2018-07-20T14:41:27.337Z,28.80
2018-07-20T14:43:56.431Z,28.70
2018-07-20T14:46:25.808Z,28.70
2018-07-20T14:48:54.983Z,28.60
2018-07-20T14:53:52.278Z,28.60
2018-07-20T14:56:21.458Z,28.50
2018-07-20T14:58:50.030Z,28.50
2018-07-20T15:03:46.911Z,28.30
2018-07-20T15:06:15.597Z,28.20
2018-07-20T15:08:44.624Z,28.20
2018-07-20T15:11:14.120Z,28.10
2018-07-20T15:13:43.051Z,28.10
2018-07-20T15:16:12.232Z,28.10
2018-07-20T15:18:40.908Z,28.00
2018-07-20T15:21:09.813Z,28.00
2018-07-20T15:23:38.452Z,28.00
2018-07-20T15:28:35.770Z,27.90
2018-07-20T15:31:05.268Z,27.90
2018-07-20T15:33:33.795Z,27.80
2018-07-20T15:38:31.595Z,27.80
2018-07-20T15:41:00.855Z,27.80
2018-07-20T15:43:30.177Z,27.80
2018-07-20T15:46:05.967Z,27.70
2018-07-20T15:48:28.719Z,27.70
2018-07-20T15:53:36.267Z,27.70
2018-07-20T15:55:56.705Z,27.60
2018-07-20T15:58:25.229Z,27.60
2018-07-20T16:00:54.483Z,27.60
2018-07-20T16:03:24.138Z,27.60
2018-07-20T16:05:53.402Z,27.70
2018-07-20T16:08:22.221Z,27.70
2018-07-20T16:10:50.832Z,27.70
2018-07-20T16:13:19.502Z,27.70
2018-07-20T16:15:48.589Z,27.70
2018-07-20T16:18:17.742Z,27.70
2018-07-20T16:20:46.435Z,27.70
2018-07-20T16:23:15.613Z,27.70
2018-07-20T16:25:45.160Z,27.70
2018-07-20T16:28:13.929Z,27.70
2018-07-20T16:30:42.492Z,27.80
2018-07-20T16:33:11.254Z,27.90
2018-07-20T16:35:39.805Z,27.90
2018-07-20T16:38:08.609Z,27.80
2018-07-20T16:40:38.294Z,27.80
2018-07-20T16:43:06.990Z,27.90
2018-07-20T16:45:36.074Z,28.10
2018-07-20T16:48:04.658Z,28.10
2018-07-20T16:50:34.718Z,28.10
2018-07-20T16:53:03.365Z,28.10
2018-07-20T16:55:32.664Z,28.10
2018-07-20T17:00:31.234Z,27.80
2018-07-20T17:03:00.274Z,27.70
2018-07-20T17:05:28.837Z,27.60
2018-07-20T17:07:57.947Z,27.60
2018-07-20T17:10:26.886Z,27.50
2018-07-20T17:12:55.718Z,27.40
2018-07-20T17:15:26.197Z,27.30
2018-07-20T17:17:56.036Z,27.30
2018-07-20T17:20:25.834Z,27.20
2018-07-20T17:22:55.431Z,27.20
2018-07-20T17:25:24.385Z,27.20
2018-07-20T17:27:53.233Z,27.10
2018-07-20T17:30:22.414Z,27.00
2018-07-20T17:32:51.145Z,27.00
2018-07-20T17:35:19.769Z,26.90
2018-07-20T17:37:48.840Z,26.80
2018-07-20T17:40:18.126Z,26.80
2018-07-20T17:42:47.584Z,26.70
2018-07-20T17:45:16.890Z,26.70
2018-07-20T17:47:45.669Z,26.60
2018-07-20T17:50:15.277Z,26.60
2018-07-20T17:52:44.080Z,26.40
2018-07-20T17:55:13.052Z,26.40
2018-07-20T17:57:41.743Z,26.30
2018-07-20T18:00:10.488Z,26.10
2018-07-20T18:02:41.304Z,26.10
2018-07-20T18:05:10.026Z,26.00
2018-07-20T18:07:38.819Z,25.90
2018-07-20T18:10:07.735Z,25.80
2018-07-20T18:12:36.246Z,25.70
2018-07-20T18:15:05.254Z,25.70
2018-07-20T18:17:33.838Z,25.60
2018-07-20T18:20:02.759Z,25.60
2018-07-20T18:22:31.437Z,25.70
2018-07-20T18:25:00.775Z,25.60
2018-07-20T18:27:30.406Z,25.60
2018-07-20T18:29:59.242Z,25.50
2018-07-20T18:32:28.374Z,25.50
2018-07-20T18:34:58.196Z,25.50
2018-07-20T18:37:26.705Z,25.40
2018-07-20T18:42:23.946Z,25.40
2018-07-20T18:44:52.757Z,25.40
2018-07-20T18:47:22.345Z,25.30
2018-07-20T18:52:19.277Z,25.10
2018-07-20T18:54:47.884Z,25.00
2018-07-20T18:57:16.550Z,25.00
2018-07-20T18:59:45.821Z,25.00
2018-07-20T19:02:14.635Z,25.10
2018-07-20T19:04:43.165Z,25.10
2018-07-20T19:07:11.795Z,25.20
2018-07-20T19:09:40.534Z,25.20
2018-07-20T19:12:09.233Z,25.20
2018-07-20T19:14:37.862Z,25.20
2018-07-20T19:17:06.455Z,25.30
2018-07-20T19:19:34.975Z,25.30
2018-07-20T19:22:03.549Z,25.30
2018-07-20T19:24:32.318Z,25.30
2018-07-20T19:27:00.860Z,25.20
2018-07-20T19:29:29.635Z,25.20
2018-07-20T19:31:58.431Z,25.10
2018-07-20T19:34:27.186Z,25.10
2018-07-20T19:36:55.739Z,25.00
2018-07-20T19:39:24.488Z,25.00
2018-07-20T19:44:21.746Z,25.00
2018-07-20T19:46:50.282Z,24.90
2018-07-20T19:49:18.798Z,24.90
2018-07-20T19:51:47.435Z,24.70
2018-07-20T19:54:16.357Z,24.70
2018-07-20T19:56:45.022Z,24.70
2018-07-20T19:59:13.849Z,24.70
2018-07-20T20:01:42.516Z,24.50
2018-07-20T20:04:11.416Z,24.40
2018-07-20T20:06:41.761Z,24.30
2018-07-20T20:09:11.658Z,24.30
2018-07-20T20:11:40.515Z,24.30
2018-07-20T20:14:09.045Z,24.30
2018-07-20T20:16:38.148Z,24.40
2018-07-20T20:19:06.757Z,24.40
2018-07-20T20:21:35.537Z,24.40
2018-07-20T20:24:04.031Z,24.40
2018-07-20T20:26:32.781Z,24.40
2018-07-20T20:29:01.365Z,24.40
2018-07-20T20:31:31.684Z,24.40
2018-07-20T20:34:00.612Z,24.40
2018-07-20T20:36:29.870Z,24.30
2018-07-20T20:38:58.501Z,24.30
2018-07-20T20:41:29.047Z,24.20
2018-07-20T20:43:57.655Z,24.10
2018-07-20T20:46:26.302Z,24.10
2018-07-20T20:48:54.867Z,24.10
2018-07-20T20:51:24.072Z,24.10
2018-07-20T20:53:52.707Z,24.10
2018-07-20T20:56:21.900Z,24.00
2018-07-20T20:58:50.788Z,24.00
2018-07-20T21:01:19.990Z,24.00
2018-07-20T21:03:48.702Z,24.00
2018-07-20T21:06:17.808Z,24.00
2018-07-20T21:08:46.359Z,24.00
2018-07-20T21:13:43.270Z,24.10
2018-07-20T21:16:11.876Z,24.10
2018-07-20T21:18:40.732Z,24.10
2018-07-20T21:21:09.342Z,24.10
2018-07-20T21:23:38.390Z,24.10
2018-07-20T21:26:07.010Z,24.00
2018-07-20T21:28:37.067Z,23.80
2018-07-20T21:31:05.630Z,23.80
2018-07-20T21:33:34.506Z,23.90
2018-07-20T21:36:03.055Z,23.80
2018-07-20T21:38:31.557Z,23.90
2018-07-20T21:41:00.417Z,23.90
2018-07-20T21:43:29.168Z,23.90
2018-07-20T21:45:57.945Z,23.90
2018-07-20T21:48:26.422Z,23.80
2018-07-20T21:50:55.048Z,23.80
2018-07-20T21:53:23.621Z,23.80
2018-07-20T21:55:52.139Z,23.70
2018-07-20T21:58:20.634Z,23.60
2018-07-20T22:00:49.386Z,23.60
2018-07-20T22:05:46.196Z,23.60
2018-07-20T22:08:14.823Z,23.60
2018-07-20T22:10:43.412Z,23.60
2018-07-20T22:13:12.095Z,23.60
2018-07-20T22:15:40.681Z,23.60
2018-07-20T22:18:09.273Z,23.60
2018-07-20T22:23:06.743Z,23.50
2018-07-20T22:25:35.335Z,23.40
2018-07-20T22:28:03.940Z,23.40
2018-07-20T22:30:32.511Z,23.30
2018-07-20T22:33:01.123Z,23.40
2018-07-20T22:35:30.311Z,23.40
2018-07-20T22:37:58.955Z,23.50
2018-07-20T22:40:27.542Z,23.50
2018-07-20T22:42:56.083Z,23.50
2018-07-20T22:45:24.704Z,23.50
2018-07-20T22:47:53.252Z,23.60
2018-07-20T22:50:21.823Z,23.60
2018-07-20T22:52:50.411Z,23.60
2018-07-20T22:55:18.937Z,23.50
2018-07-20T22:57:47.529Z,23.60
2018-07-20T23:00:16.174Z,23.60
2018-07-20T23:02:45.346Z,23.70
2018-07-20T23:05:13.968Z,23.70
2018-07-20T23:07:44.454Z,23.70
2018-07-20T23:10:12.985Z,23.60
2018-07-20T23:12:41.725Z,23.60
2018-07-20T23:15:10.348Z,23.60
2018-07-20T23:17:38.955Z,23.50
2018-07-20T23:20:07.510Z,23.60
2018-07-20T23:22:36.094Z,23.60
2018-07-20T23:25:04.888Z,23.50
2018-07-20T23:27:33.695Z,23.40
2018-07-20T23:30:02.283Z,23.40
2018-07-20T23:32:30.777Z,23.40
2018-07-20T23:34:59.343Z,23.30
2018-07-20T23:37:28.034Z,23.30
2018-07-20T23:39:57.279Z,23.20
2018-07-20T23:42:25.999Z,23.20
2018-07-20T23:44:54.550Z,23.00
2018-07-20T23:47:23.736Z,22.90
2018-07-20T23:49:52.637Z,22.90
2018-07-20T23:52:21.128Z,23.00
2018-07-20T23:54:49.691Z,23.00
2018-07-20T23:57:18.251Z,22.90
2018-07-20T23:59:47.009Z,22.80
